createdAt,value
2022-10-16T00:01:16.328Z,9.93
2022-10-16T00:04:03.613Z,6.50
2022-10-16T00:06:50.520Z,7.93
2022-10-16T00:09:37.457Z,8.40
2022-10-16T00:12:24.722Z,8.13
2022-10-16T00:15:11.853Z,6.93
2022-10-16T00:17:58.757Z,7.23
2022-10-16T00:20:45.709Z,7.90
2022-10-16T00:23:33.090Z,7.43
2022-10-16T00:26:20.476Z,6.77
2022-10-16T00:29:08.122Z,6.40
2022-10-16T00:31:55.040Z,6.57
2022-10-16T00:34:41.984Z,7.80
2022-10-16T00:37:28.926Z,6.27
2022-10-16T00:40:15.904Z,7.67
2022-10-16T00:43:02.817Z,8.17
2022-10-16T00:45:49.753Z,8.17
2022-10-16T00:48:36.783Z,6.20
2022-10-16T00:51:28.960Z,8.07
2022-10-16T00:54:25.858Z,7.00
2022-10-16T01:00:07.907Z,7.53
2022-10-16T01:02:57.303Z,7.70
2022-10-16T01:05:53.033Z,11.10
2022-10-16T01:08:58.995Z,7.17
2022-10-16T01:12:00.445Z,8.00
2022-10-16T01:14:54.969Z,7.50
2022-10-16T01:17:52.594Z,8.53
2022-10-16T01:20:48.523Z,8.30
2022-10-16T01:23:57.519Z,8.00
2022-10-16T01:27:23.138Z,7.13
2022-10-16T01:30:24.066Z,9.10
2022-10-16T01:33:13.942Z,10.17
2022-10-16T01:36:06.834Z,6.43
2022-10-16T01:38:57.537Z,8.83
2022-10-16T01:41:53.582Z,7.97
2022-10-16T01:44:41.850Z,7.60
2022-10-16T01:47:32.310Z,9.83
2022-10-16T01:50:21.660Z,6.93
2022-10-16T01:53:13.126Z,8.80
2022-10-16T01:56:01.446Z,7.80
2022-10-16T01:58:56.413Z,7.33
2022-10-16T02:01:52.005Z,6.50
2022-10-16T02:04:44.565Z,5.87
2022-10-16T02:07:31.572Z,8.40
2022-10-16T02:10:18.924Z,8.77
2022-10-16T02:13:28.360Z,6.97
2022-10-16T02:16:15.879Z,7.30
2022-10-16T02:19:03.813Z,7.43
2022-10-16T02:22:02.717Z,6.93
2022-10-16T02:25:04.816Z,6.17
2022-10-16T02:28:07.222Z,7.63
2022-10-16T02:31:03.618Z,7.00
2022-10-16T02:33:52.530Z,5.77
2022-10-16T02:36:41.541Z,7.30
2022-10-16T02:39:29.627Z,5.67
2022-10-16T02:42:18.528Z,5.77
2022-10-16T02:45:07.426Z,7.40
2022-10-16T02:47:54.340Z,5.87
2022-10-16T02:50:41.252Z,4.87
2022-10-16T02:53:28.160Z,5.23
2022-10-16T02:56:15.143Z,4.70
2022-10-16T02:59:02.125Z,5.17
2022-10-16T03:01:49.390Z,4.93
2022-10-16T03:04:36.534Z,5.07
2022-10-16T03:07:23.711Z,6.07
2022-10-16T03:10:10.810Z,4.23
2022-10-16T03:12:57.750Z,10.17
2022-10-16T03:15:45.016Z,4.20
2022-10-16T03:18:31.918Z,7.10
2022-10-16T03:21:18.886Z,10.20
2022-10-16T03:24:06.278Z,3.73
2022-10-16T03:26:53.244Z,3.57
2022-10-16T03:29:40.183Z,4.37
2022-10-16T03:32:27.262Z,7.60
2022-10-16T03:35:14.317Z,7.40
2022-10-16T03:38:01.371Z,5.67
2022-10-16T03:40:48.575Z,6.90
2022-10-16T03:43:35.524Z,3.70
2022-10-16T03:46:22.479Z,4.67
2022-10-16T03:49:09.883Z,5.73
2022-10-16T03:51:56.980Z,6.37
2022-10-16T03:54:43.895Z,4.37
2022-10-16T03:57:30.827Z,4.03
2022-10-16T04:00:17.897Z,5.83
2022-10-16T04:03:04.816Z,10.27
2022-10-16T04:05:51.820Z,5.83
2022-10-16T04:08:40.031Z,3.90
2022-10-16T04:11:26.943Z,4.57
2022-10-16T04:14:13.979Z,5.90
2022-10-16T04:17:00.923Z,5.13
2022-10-16T04:19:47.852Z,4.47
2022-10-16T04:22:34.786Z,5.00
2022-10-16T04:25:21.740Z,4.83
2022-10-16T04:28:08.635Z,5.60
2022-10-16T04:30:55.767Z,3.27
2022-10-16T04:33:45.642Z,6.50
2022-10-16T04:36:32.574Z,6.47
2022-10-16T04:39:19.643Z,5.93
2022-10-16T04:42:06.577Z,4.43
2022-10-16T04:44:53.463Z,4.43
2022-10-16T04:47:41.032Z,3.40
2022-10-16T04:50:28.119Z,3.23
2022-10-16T04:53:15.248Z,3.53
2022-10-16T04:56:02.159Z,3.50
2022-10-16T04:58:49.184Z,4.50
2022-10-16T05:01:36.309Z,3.50
2022-10-16T05:04:23.301Z,3.37
2022-10-16T05:07:10.338Z,4.13
2022-10-16T05:09:57.367Z,3.40
2022-10-16T05:12:44.440Z,3.13
2022-10-16T05:15:31.935Z,4.93
2022-10-16T05:18:18.841Z,3.97
2022-10-16T05:21:06.802Z,4.83
2022-10-16T05:23:55.581Z,3.73
2022-10-16T05:26:42.481Z,5.67
2022-10-16T05:29:29.462Z,5.23
2022-10-16T05:32:17.678Z,3.43
2022-10-16T05:35:07.523Z,4.10
2022-10-16T05:37:57.113Z,4.63
2022-10-16T05:40:44.872Z,4.23
2022-10-16T05:43:32.595Z,5.20
2022-10-16T05:46:20.010Z,7.83
2022-10-16T05:49:06.980Z,6.57
2022-10-16T05:51:53.904Z,5.07
2022-10-16T05:54:40.810Z,3.77
2022-10-16T05:57:28.010Z,3.30
2022-10-16T06:00:15.146Z,5.03
2022-10-16T06:03:02.158Z,4.80
2022-10-16T06:05:49.283Z,2.67
2022-10-16T06:08:36.249Z,4.40
2022-10-16T06:11:27.181Z,3.63
2022-10-16T06:14:14.249Z,5.73
2022-10-16T06:17:01.357Z,2.97
2022-10-16T06:19:48.264Z,3.53
2022-10-16T06:22:35.180Z,3.37
2022-10-16T06:25:22.146Z,5.53
2022-10-16T06:28:09.067Z,8.40
2022-10-16T06:31:07.283Z,4.37
2022-10-16T06:33:56.057Z,2.77
2022-10-16T06:36:44.343Z,4.00
2022-10-16T06:39:31.255Z,4.33
2022-10-16T06:42:18.220Z,9.40
2022-10-16T06:45:05.471Z,4.87
2022-10-16T06:47:52.389Z,7.00
2022-10-16T06:50:39.324Z,3.93
2022-10-16T06:53:28.076Z,3.67
2022-10-16T06:56:20.573Z,5.00
2022-10-16T06:59:07.495Z,4.27
2022-10-16T07:01:54.405Z,5.43
2022-10-16T07:04:41.316Z,4.93
2022-10-16T07:07:28.289Z,5.67
2022-10-16T07:10:15.357Z,4.73
2022-10-16T07:13:02.740Z,6.97
2022-10-16T07:15:49.645Z,6.83
2022-10-16T07:18:37.753Z,4.83
2022-10-16T07:21:26.545Z,4.97
2022-10-16T07:24:16.593Z,3.50
2022-10-16T07:27:03.644Z,4.10
2022-10-16T07:29:50.957Z,5.70
2022-10-16T07:32:37.891Z,4.73
2022-10-16T07:35:24.787Z,4.90
2022-10-16T07:38:11.686Z,3.67
2022-10-16T07:41:00.721Z,6.83
2022-10-16T07:43:55.506Z,6.90
2022-10-16T07:46:42.493Z,4.20
2022-10-16T07:49:29.423Z,8.20
2022-10-16T07:52:16.469Z,5.73
2022-10-16T07:55:04.213Z,7.17
2022-10-16T07:57:51.110Z,5.90
2022-10-16T08:00:38.588Z,6.00
2022-10-16T08:03:26.405Z,5.33
2022-10-16T08:06:13.772Z,6.13
2022-10-16T08:09:00.893Z,5.63
2022-10-16T08:11:47.811Z,4.20
2022-10-16T08:14:34.763Z,4.93
2022-10-16T08:17:21.679Z,5.57
2022-10-16T08:20:09.547Z,5.43
2022-10-16T08:22:56.564Z,3.87
2022-10-16T08:25:44.064Z,4.63
2022-10-16T08:28:31.177Z,5.77
2022-10-16T08:34:09.982Z,5.47
2022-10-16T08:36:56.940Z,7.10
2022-10-16T08:39:43.853Z,5.17
2022-10-16T08:42:39.253Z,3.80
2022-10-16T08:45:56.289Z,4.73
2022-10-16T08:48:48.191Z,6.00
2022-10-16T08:51:40.264Z,5.77
2022-10-16T08:54:37.959Z,7.90
2022-10-16T08:57:27.710Z,3.97
2022-10-16T09:00:15.692Z,3.23
2022-10-16T09:03:22.521Z,3.47
2022-10-16T09:06:31.407Z,2.70
2022-10-16T09:09:48.881Z,2.17
2022-10-16T09:13:01.660Z,5.28
2022-10-16T09:16:07.457Z,1.88
2022-10-16T09:19:15.535Z,1.95
2022-10-16T09:22:11.415Z,2.15
2022-10-16T09:25:06.248Z,3.83
2022-10-16T09:27:54.614Z,2.78
2022-10-16T09:30:42.011Z,2.13
2022-10-16T09:33:37.586Z,3.92
2022-10-16T09:36:27.950Z,1.92
2022-10-16T09:39:14.974Z,4.05
2022-10-16T09:42:02.038Z,3.15
2022-10-16T09:44:51.477Z,4.70
2022-10-16T09:47:43.372Z,2.67
2022-10-16T09:50:30.396Z,3.67
2022-10-16T09:53:19.716Z,2.67
2022-10-16T09:56:10.357Z,2.20
2022-10-16T09:59:04.042Z,2.00
2022-10-16T10:01:53.450Z,3.13
2022-10-16T10:04:47.052Z,4.53
2022-10-16T10:07:44.183Z,2.85
2022-10-16T10:10:34.599Z,4.32
2022-10-16T10:13:25.093Z,4.07
2022-10-16T10:16:12.035Z,2.92
2022-10-16T10:19:00.388Z,3.25
2022-10-16T10:21:48.246Z,4.88
2022-10-16T10:24:35.204Z,2.10
2022-10-16T10:27:28.940Z,3.90
2022-10-16T10:30:18.888Z,3.83
2022-10-16T10:33:31.830Z,2.45
2022-10-16T10:36:36.618Z,2.67
2022-10-16T10:39:33.456Z,3.78
2022-10-16T10:42:23.494Z,3.40
2022-10-16T10:45:25.206Z,2.55
2022-10-16T10:48:25.511Z,3.15
2022-10-16T10:51:26.663Z,2.92
2022-10-16T10:54:13.650Z,3.70
2022-10-16T10:57:29.446Z,2.45
2022-10-16T11:00:19.195Z,3.67
2022-10-16T11:03:30.072Z,3.83
2022-10-16T11:06:25.477Z,4.63
2022-10-16T11:09:43.821Z,3.08
2022-10-16T11:12:41.410Z,2.22
2022-10-16T11:15:36.332Z,2.85
2022-10-16T11:18:40.294Z,3.05
2022-10-16T11:21:31.415Z,3.47
2022-10-16T11:25:05.977Z,1.55
2022-10-16T11:27:56.224Z,3.50
2022-10-16T11:30:58.159Z,4.88
2022-10-16T11:34:24.425Z,3.35
2022-10-16T11:37:19.881Z,2.25
2022-10-16T11:40:22.591Z,2.70
2022-10-16T11:43:33.130Z,5.35
2022-10-16T11:46:24.838Z,3.20
2022-10-16T11:49:19.647Z,3.13
2022-10-16T11:52:20.076Z,4.70
2022-10-16T11:55:35.831Z,2.97
2022-10-16T11:58:33.397Z,2.85
2022-10-16T12:01:39.309Z,2.03
2022-10-16T12:04:46.568Z,4.20
2022-10-16T12:07:42.764Z,3.70
2022-10-16T12:10:32.977Z,3.83
2022-10-16T12:13:39.549Z,3.45
2022-10-16T12:16:26.602Z,4.00
2022-10-16T12:19:20.499Z,1.38
2022-10-16T12:22:18.968Z,4.70
2022-10-16T12:25:06.432Z,2.90
2022-10-16T12:28:18.214Z,2.03
2022-10-16T12:31:09.401Z,4.25
2022-10-16T12:34:02.133Z,1.95
2022-10-16T12:36:49.527Z,3.42
2022-10-16T12:39:37.772Z,3.10
2022-10-16T12:42:34.523Z,6.47
2022-10-16T12:45:33.376Z,3.58
2022-10-16T12:48:26.430Z,3.08
2022-10-16T12:51:36.058Z,1.92
2022-10-16T12:54:30.137Z,3.85
2022-10-16T12:57:48.457Z,4.88
2022-10-16T13:00:47.441Z,3.70
2022-10-16T13:04:04.587Z,3.30
2022-10-16T13:07:19.117Z,4.15
2022-10-16T13:10:36.881Z,2.95
2022-10-16T13:13:48.677Z,2.45
2022-10-16T13:16:50.548Z,4.35
2022-10-16T13:20:03.090Z,8.23
2022-10-16T13:23:25.672Z,6.03
2022-10-16T13:26:30.900Z,2.83
2022-10-16T13:29:17.904Z,2.88
2022-10-16T13:32:10.952Z,4.50
2022-10-16T13:34:57.954Z,4.47
2022-10-16T13:37:44.843Z,4.35
2022-10-16T13:40:31.940Z,5.22
2022-10-16T13:43:50.169Z,8.10
2022-10-16T13:46:37.081Z,3.70
2022-10-16T13:49:24.059Z,2.78
2022-10-16T13:52:21.881Z,3.85
2022-10-16T13:55:19.388Z,6.83
2022-10-16T13:58:14.286Z,4.30
2022-10-16T14:01:06.313Z,3.57
2022-10-16T14:03:53.554Z,2.53
2022-10-16T14:06:50.512Z,3.00
2022-10-16T14:09:37.862Z,6.05
2022-10-16T14:12:27.996Z,3.90
2022-10-16T14:15:19.908Z,4.07
2022-10-16T14:18:07.068Z,3.45
2022-10-16T14:20:55.704Z,4.90
2022-10-16T14:23:44.654Z,4.13
2022-10-16T14:26:48.194Z,5.10
2022-10-16T14:29:37.612Z,5.53
2022-10-16T14:32:25.432Z,2.80
2022-10-16T14:35:37.350Z,5.90
2022-10-16T14:38:24.287Z,5.13
2022-10-16T14:41:11.334Z,7.72
2022-10-16T14:44:04.104Z,5.50
2022-10-16T14:46:51.101Z,4.78
2022-10-16T14:49:38.076Z,9.38
2022-10-16T14:52:25.036Z,5.00
2022-10-16T14:55:12.284Z,3.97
2022-10-16T14:58:00.870Z,3.45
2022-10-16T15:00:48.546Z,7.22
2022-10-16T15:03:35.487Z,3.57
2022-10-16T15:06:23.112Z,3.38
2022-10-16T15:09:10.302Z,4.70
2022-10-16T15:11:57.215Z,3.58
2022-10-16T15:14:44.345Z,5.15
2022-10-16T15:17:31.262Z,6.00
2022-10-16T15:20:18.205Z,3.73
2022-10-16T15:23:15.686Z,3.97
2022-10-16T15:26:02.651Z,2.85
2022-10-16T15:28:49.601Z,3.37
2022-10-16T15:31:36.903Z,5.15
2022-10-16T15:34:23.820Z,5.38
2022-10-16T15:37:12.831Z,3.40
2022-10-16T15:39:59.760Z,3.63
2022-10-16T15:42:47.132Z,4.37
2022-10-16T15:45:34.517Z,4.07
2022-10-16T15:48:21.428Z,4.43
2022-10-16T15:51:08.962Z,3.50
2022-10-16T15:53:57.924Z,3.60
2022-10-16T15:56:46.478Z,4.30
2022-10-16T15:59:33.395Z,5.83
2022-10-16T16:02:20.330Z,5.50
2022-10-16T16:05:09.010Z,3.00
2022-10-16T16:07:55.997Z,6.13
2022-10-16T16:10:42.982Z,6.03
2022-10-16T16:13:30.125Z,6.30
2022-10-16T16:16:18.493Z,5.97
2022-10-16T16:19:09.203Z,7.10
2022-10-16T16:21:58.672Z,4.07
2022-10-16T16:24:45.618Z,9.97
2022-10-16T16:27:34.545Z,5.30
2022-10-16T16:30:23.750Z,14.50
2022-10-16T16:33:14.269Z,14.20
2022-10-16T16:36:03.703Z,14.53
2022-10-16T16:38:51.377Z,9.97
2022-10-16T16:41:38.335Z,8.63
2022-10-16T16:44:25.940Z,9.53
2022-10-16T16:47:12.880Z,7.80
2022-10-16T16:50:00.436Z,5.37
2022-10-16T16:52:47.348Z,6.40
2022-10-16T16:55:34.651Z,6.13
2022-10-16T16:58:21.594Z,21.07
2022-10-16T17:01:26.251Z,30.63
2022-10-16T17:04:15.945Z,36.10
2022-10-16T17:07:02.881Z,40.43
2022-10-16T17:09:49.810Z,39.83
2022-10-16T17:12:37.073Z,28.00
2022-10-16T17:15:24.023Z,22.83
2022-10-16T17:18:10.932Z,16.97
2022-10-16T17:21:02.009Z,8.17
2022-10-16T17:23:52.916Z,11.20
2022-10-16T17:26:41.587Z,6.70
2022-10-16T17:29:28.546Z,5.80
2022-10-16T17:32:15.562Z,5.10
2022-10-16T17:35:02.496Z,4.53
2022-10-16T17:37:51.476Z,10.33
2022-10-16T17:40:39.111Z,12.60
2022-10-16T17:43:26.088Z,14.53
2022-10-16T17:46:15.211Z,17.63
2022-10-16T17:49:02.333Z,28.90
2022-10-16T17:51:53.936Z,23.33
2022-10-16T17:54:41.086Z,12.00
2022-10-16T17:57:27.991Z,10.53
2022-10-16T18:00:15.130Z,10.83
2022-10-16T18:03:02.307Z,9.23
2022-10-16T18:05:49.292Z,7.40
2022-10-16T18:08:39.137Z,5.93
2022-10-16T18:11:27.475Z,11.27
2022-10-16T18:14:16.584Z,19.23
2022-10-16T18:17:03.859Z,22.63
2022-10-16T18:19:50.884Z,21.93
2022-10-16T18:22:38.089Z,18.97
2022-10-16T18:25:25.121Z,12.47
2022-10-16T18:28:12.069Z,7.00
2022-10-16T18:31:08.139Z,4.67
2022-10-16T18:33:55.803Z,8.43
2022-10-16T18:36:45.742Z,7.00
2022-10-16T18:39:32.651Z,5.97
2022-10-16T18:42:19.858Z,5.13
2022-10-16T18:45:07.419Z,7.67
2022-10-16T18:47:54.346Z,9.57
2022-10-16T18:50:41.260Z,9.70
2022-10-16T18:56:17.703Z,7.77
2022-10-16T18:59:07.130Z,9.37
2022-10-16T19:01:54.400Z,9.30
2022-10-16T19:04:41.404Z,7.33
2022-10-16T19:07:28.575Z,6.63
2022-10-16T19:10:16.032Z,5.37
2022-10-16T19:13:03.673Z,6.37
2022-10-16T19:15:58.567Z,5.63
2022-10-16T19:18:53.128Z,6.93
2022-10-16T19:21:41.120Z,10.13
2022-10-16T19:24:28.027Z,6.87
2022-10-16T19:27:14.943Z,7.57
2022-10-16T19:30:02.398Z,7.03
2022-10-16T19:32:49.803Z,5.70
2022-10-16T19:35:36.712Z,6.33
2022-10-16T19:38:23.661Z,7.13
2022-10-16T19:41:16.106Z,3.50
2022-10-16T19:44:05.254Z,4.37
2022-10-16T19:46:52.153Z,8.67
2022-10-16T19:49:39.105Z,6.83
2022-10-16T19:52:26.326Z,8.20
2022-10-16T19:55:13.493Z,5.70
2022-10-16T19:58:00.376Z,5.80
2022-10-16T20:00:47.357Z,9.50
2022-10-16T20:03:35.547Z,8.00
2022-10-16T20:06:22.917Z,6.23
2022-10-16T20:09:09.909Z,7.93
2022-10-16T20:11:56.808Z,3.60
2022-10-16T20:14:43.748Z,6.73
2022-10-16T20:17:30.949Z,6.93
2022-10-16T20:20:18.066Z,4.03
2022-10-16T20:23:05.259Z,4.27
2022-10-16T20:25:52.844Z,6.20
2022-10-16T20:28:41.257Z,5.33
2022-10-16T20:31:31.530Z,3.50
2022-10-16T20:34:18.460Z,5.70
2022-10-16T20:37:05.389Z,6.93
2022-10-16T20:39:52.372Z,5.73
2022-10-16T20:42:39.276Z,6.00
2022-10-16T20:45:26.266Z,4.77
2022-10-16T20:48:14.041Z,7.87
2022-10-16T20:51:20.728Z,4.83
2022-10-16T20:54:07.753Z,8.07
2022-10-16T20:56:54.711Z,9.50
2022-10-16T20:59:41.825Z,6.13
2022-10-16T21:02:28.803Z,6.23
2022-10-16T21:05:15.858Z,6.20
2022-10-16T21:08:02.780Z,7.83
2022-10-16T21:10:49.718Z,8.23
2022-10-16T21:13:38.161Z,6.10
2022-10-16T21:16:25.897Z,5.30
2022-10-16T21:19:12.849Z,5.30
2022-10-16T21:21:59.778Z,6.80
2022-10-16T21:24:46.793Z,4.27
2022-10-16T21:27:38.221Z,6.20
2022-10-16T21:30:25.682Z,6.27
2022-10-16T21:33:12.668Z,4.20
2022-10-16T21:36:01.568Z,5.70
2022-10-16T21:38:49.471Z,7.90
2022-10-16T21:41:37.114Z,7.03
2022-10-16T21:44:24.116Z,7.67
2022-10-16T21:47:11.106Z,5.00
2022-10-16T21:49:58.039Z,5.20
2022-10-16T21:52:44.955Z,4.20
2022-10-16T21:55:35.990Z,6.33
2022-10-16T21:58:22.924Z,4.73
2022-10-16T22:01:12.291Z,6.03
2022-10-16T22:03:59.424Z,8.03
2022-10-16T22:06:46.862Z,7.20
2022-10-16T22:09:33.783Z,5.07
2022-10-16T22:12:20.740Z,5.23
2022-10-16T22:15:08.415Z,9.77
2022-10-16T22:17:55.370Z,4.80
2022-10-16T22:20:46.682Z,5.60
2022-10-16T22:23:33.968Z,10.07
2022-10-16T22:26:21.209Z,10.40
2022-10-16T22:29:11.033Z,7.67
2022-10-16T22:31:57.973Z,6.37
2022-10-16T22:34:45.123Z,7.10
2022-10-16T22:37:32.017Z,5.20
2022-10-16T22:40:19.116Z,6.40
2022-10-16T22:43:07.081Z,4.47
2022-10-16T22:45:54.038Z,4.30
2022-10-16T22:48:41.754Z,9.33
2022-10-16T22:51:28.810Z,5.00
2022-10-16T22:54:15.907Z,7.97
2022-10-16T22:57:02.829Z,6.03
2022-10-16T22:59:49.755Z,4.47
2022-10-16T23:02:36.681Z,4.73
2022-10-16T23:05:23.682Z,4.53
2022-10-16T23:08:11.782Z,4.50
2022-10-16T23:11:01.902Z,4.90
2022-10-16T23:13:49.518Z,5.77
2022-10-16T23:16:36.447Z,5.20
2022-10-16T23:19:23.359Z,5.40
2022-10-16T23:22:10.272Z,7.33
2022-10-16T23:24:57.160Z,5.07
2022-10-16T23:27:44.084Z,7.00
2022-10-16T23:30:31.022Z,6.97
2022-10-16T23:33:17.966Z,6.67
2022-10-16T23:36:07.575Z,5.97
2022-10-16T23:38:55.030Z,6.17
2022-10-16T23:41:42.000Z,9.10
2022-10-16T23:44:28.914Z,5.43
2022-10-16T23:47:15.973Z,5.70
2022-10-16T23:50:03.060Z,5.93
2022-10-16T23:52:49.977Z,7.90
2022-10-16T23:55:37.124Z,5.97
2022-10-16T23:58:24.208Z,3.30
